Airfield :
LOGIN :

Register | Disclaimer

   EN    FR    IT 

 










Legend :    VFR   Marginal VFR   IFR   Intensive IFR   Very Intensive IFR
Visi :
Ceiling :
>= 8 km
>= 3000ft
5 to 8 km
1000 to 3000 ft
1500m to 5 km
500 to 1000 ft
800 to 1500m
200 to 500 ft
< 800m
< 200 ft
Symbols :   Thunderstorms  Fog  Heavy snow  Heavy precipitations  Wind > 20 kt
SIGMETs :     Misc.  Thunderstorms  Icing  Turbulence  Mountain Waves  Volcanic Ashes







- Airport Elevation : 80 ft
- IATA code : LPL
- Download approach charts


EGGP - Liverpool John Lennon

CURRENT METAR :
  • 231450Z 20007KT 9999 FEW020 BKN028 17/15 Q1013

EXPIRED METARs :
  • 231420Z 20006KT 9999 BKN024 16/15 Q1013
  • 231350Z 17007KT 150V210 9999 BKN020 16/15 Q1013
  • 231320Z 17008KT 9999 BKN022 16/14 Q1013
  • 231250Z 17008KT 9999 BKN021 16/14 Q1013
  • 231220Z 17007KT 9999 BKN022 16/14 Q1013

TAF TAF EGGP
Valid from the 23 at 12:00 until the 24 at 12:00 UTC


231102Z 2312/2412 17010KT 9999 FEW012 BKN030
BECMG 2312/2314 27005KT
TEMPO 2312/2316 8000 -RA BKN010
PROB40
TEMPO 2312/2314 4000 BR BKN007
BECMG 2314/2317 17010KT
PROB30 2323/2403 8000
TEMPO 2406/2412 8000 -RA BKN012
PROB30
TEMPO 2407/2409 4000 RADZ BR BKN008
BECMG 2409/2412 23012KT
ATIS : +44 151 907 2000 (option 5 or ext 5150)
Met : +44 871 750 5150
No reported NOTAMs for that airfield.



MET'MAP, your aeronautical weather chart ! - Copyright ORBIFLY December 2007 - Disclaimer

ORBIFLY MET'MAP TEAM :

Programming & Development : Alexandra Zaïnal
Concept & Development : Baudouin d'Aumeries
Co-Development & Prog : Marc-Olivier Méhu
Technical & hardware support : Manuel Goepfert

Contact : metmap@orbifly.com




SOURCES & CREDITS :

   NOAA